Standale, Michigan
Current Conditions -  °F | °C
As of 12:53 PM on Sunday 25 Jan 2015 (Local Time) from KGRR Reporting Station
Broken Clouds Broken Clouds  
Wind Chill: -13°   Ceiling: 4400
Heat Index: -6°   Visibility: 10mi
Dew Point: -10°   Wind: 16mph
Humidity: 72%   Direction: 50°NE
Pressure: 29.9"   Gusts: NA
Location:  42.9769°N, 85.7689°W
Report Text: KGRR 251753Z 05014KT 10SM BKN044 BKN120 BKN210 M06/M10 A2990 RMK AO2 SLP134 4/003 T10561100 11028 21061 50010
Loading
Personal Weather Stations






























Interactive Weather Map New forecast layout! Learn more

10-Day Weather Forecast

Advertisements
Track Severe Weather on mobile